sensor_id;sensor_type;location;lat;lon;timestamp;temperature;humidity
21752;DHT22;11038;50.940;20.564;2022-07-29T00:00:34;17.20;1.00
21752;DHT22;11038;50.940;20.564;2022-07-29T00:02:09;17.20;1.00
21752;DHT22;11038;50.940;20.564;2022-07-29T00:03:41;17.20;1.00
21752;DHT22;11038;50.940;20.564;2022-07-29T00:05:15;17.20;1.00
21752;DHT22;11038;50.940;20.564;2022-07-29T00:07:04;17.20;1.00
21752;DHT22;11038;50.940;20.564;2022-07-29T00:08:36;17.20;1.00
21752;DHT22;11038;50.940;20.564;2022-07-29T00:10:09;17.10;1.00
21752;DHT22;11038;50.940;20.564;2022-07-29T00:11:41;17.20;1.00
21752;DHT22;11038;50.940;20.564;2022-07-29T00:13:13;17.10;1.00
21752;DHT22;11038;50.940;20.564;2022-07-29T00:14:46;17.20;1.00
21752;DHT22;11038;50.940;20.564;2022-07-29T00:16:19;17.20;1.00
21752;DHT22;11038;50.940;20.564;2022-07-29T00:17:51;17.20;1.00
21752;DHT22;11038;50.940;20.564;2022-07-29T00:19:23;17.10;1.00
21752;DHT22;11038;50.940;20.564;2022-07-29T00:20:56;17.20;1.00
21752;DHT22;11038;50.940;20.564;2022-07-29T00:22:28;17.20;1.00
21752;DHT22;11038;50.940;20.564;2022-07-29T00:24:00;17.10;1.00
21752;DHT22;11038;50.940;20.564;2022-07-29T00:25:33;17.20;1.00
21752;DHT22;11038;50.940;20.564;2022-07-29T00:27:05;17.20;1.00
21752;DHT22;11038;50.940;20.564;2022-07-29T00:28:37;17.20;1.00
21752;DHT22;11038;50.940;20.564;2022-07-29T00:30:10;17.20;1.00
21752;DHT22;11038;50.940;20.564;2022-07-29T00:31:42;17.20;1.00
21752;DHT22;11038;50.940;20.564;2022-07-29T00:33:15;17.20;1.00
21752;DHT22;11038;50.940;20.564;2022-07-29T00:34:47;17.20;1.00
21752;DHT22;11038;50.940;20.564;2022-07-29T00:36:37;17.20;1.00
21752;DHT22;11038;50.940;20.564;2022-07-29T00:38:11;17.20;1.00
21752;DHT22;11038;50.940;20.564;2022-07-29T00:39:45;17.20;1.00
21752;DHT22;11038;50.940;20.564;2022-07-29T00:41:18;17.20;1.00
21752;DHT22;11038;50.940;20.564;2022-07-29T00:42:52;17.20;1.00
21752;DHT22;11038;50.940;20.564;2022-07-29T00:44:24;17.20;1.00
21752;DHT22;11038;50.940;20.564;2022-07-29T00:45:57;17.20;1.00
21752;DHT22;11038;50.940;20.564;2022-07-29T00:47:29;17.20;1.00
21752;DHT22;11038;50.940;20.564;2022-07-29T00:49:02;17.20;1.00
21752;DHT22;11038;50.940;20.564;2022-07-29T00:50:35;17.10;1.00
21752;DHT22;11038;50.940;20.564;2022-07-29T00:52:10;17.10;1.00
21752;DHT22;11038;50.940;20.564;2022-07-29T00:53:43;17.10;1.00
21752;DHT22;11038;50.940;20.564;2022-07-29T00:55:16;17.00;1.00
21752;DHT22;11038;50.940;20.564;2022-07-29T00:56:49;17.00;1.00
21752;DHT22;11038;50.940;20.564;2022-07-29T00:58:22;17.00;1.00
21752;DHT22;11038;50.940;20.564;2022-07-29T00:59:55;16.90;1.00
21752;DHT22;11038;50.940;20.564;2022-07-29T01:01:27;16.90;1.00
21752;DHT22;11038;50.940;20.564;2022-07-29T01:03:00;16.90;1.00
21752;DHT22;11038;50.940;20.564;2022-07-29T01:04:33;17.00;1.00
21752;DHT22;11038;50.940;20.564;2022-07-29T01:06:05;17.00;1.00
21752;DHT22;11038;50.940;20.564;2022-07-29T01:07:39;16.90;1.00
21752;DHT22;11038;50.940;20.564;2022-07-29T01:09:12;16.90;1.00
21752;DHT22;11038;50.940;20.564;2022-07-29T01:10:45;17.00;1.00
21752;DHT22;11038;50.940;20.564;2022-07-29T01:12:24;17.00;1.00
21752;DHT22;11038;50.940;20.564;2022-07-29T01:13:58;17.00;1.00
21752;DHT22;11038;50.940;20.564;2022-07-29T01:15:33;16.90;1.00
21752;DHT22;11038;50.940;20.564;2022-07-29T01:17:34;16.80;1.00
21752;DHT22;11038;50.940;20.564;2022-07-29T01:20:14;16.80;1.00
21752;DHT22;11038;50.940;20.564;2022-07-29T01:30:17;16.80;1.00
21752;DHT22;11038;50.940;20.564;2022-07-29T01:32:10;16.80;1.00
21752;DHT22;11038;50.940;20.564;2022-07-29T01:34:03;16.80;1.00
21752;DHT22;11038;50.940;20.564;2022-07-29T01:35:40;16.70;1.00
21752;DHT22;11038;50.940;20.564;2022-07-29T01:37:17;16.80;1.00
21752;DHT22;11038;50.940;20.564;2022-07-29T01:39:02;16.80;1.00
21752;DHT22;11038;50.940;20.564;2022-07-29T01:41:08;16.80;1.00
21752;DHT22;11038;50.940;20.564;2022-07-29T01:42:47;16.80;1.00
21752;DHT22;11038;50.940;20.564;2022-07-29T01:44:30;16.70;1.00
21752;DHT22;11038;50.940;20.564;2022-07-29T01:46:11;16.80;1.00
21752;DHT22;11038;50.940;20.564;2022-07-29T01:47:58;16.80;1.00
21752;DHT22;11038;50.940;20.564;2022-07-29T01:49:36;16.70;1.00
21752;DHT22;11038;50.940;20.564;2022-07-29T01:51:25;16.70;1.00
21752;DHT22;11038;50.940;20.564;2022-07-29T01:53:06;16.70;1.00
21752;DHT22;11038;50.940;20.564;2022-07-29T01:54:47;16.70;1.00
21752;DHT22;11038;50.940;20.564;2022-07-29T01:56:24;16.70;1.00
21752;DHT22;11038;50.940;20.564;2022-07-29T01:58:04;16.60;1.00
21752;DHT22;11038;50.940;20.564;2022-07-29T01:59:38;16.60;1.00
21752;DHT22;11038;50.940;20.564;2022-07-29T02:01:36;16.50;1.00
21752;DHT22;11038;50.940;20.564;2022-07-29T02:03:11;16.50;1.00
21752;DHT22;11038;50.940;20.564;2022-07-29T02:04:47;16.50;1.00
21752;DHT22;11038;50.940;20.564;2022-07-29T02:06:23;16.50;1.00
21752;DHT22;11038;50.940;20.564;2022-07-29T02:07:58;16.40;1.00
21752;DHT22;11038;50.940;20.564;2022-07-29T02:09:35;16.50;1.00
21752;DHT22;11038;50.940;20.564;2022-07-29T02:11:10;16.40;1.00
21752;DHT22;11038;50.940;20.564;2022-07-29T02:12:44;16.50;1.00
21752;DHT22;11038;50.940;20.564;2022-07-29T02:14:23;16.50;1.00
21752;DHT22;11038;50.940;20.564;2022-07-29T02:15:57;16.50;1.00
21752;DHT22;11038;50.940;20.564;2022-07-29T02:17:35;16.50;1.00
21752;DHT22;11038;50.940;20.564;2022-07-29T02:19:14;16.50;1.00
21752;DHT22;11038;50.940;20.564;2022-07-29T02:20:53;16.50;1.00
21752;DHT22;11038;50.940;20.564;2022-07-29T02:22:30;16.50;1.00
21752;DHT22;11038;50.940;20.564;2022-07-29T02:24:05;16.50;1.00
21752;DHT22;11038;50.940;20.564;2022-07-29T02:25:41;16.50;1.00
21752;DHT22;11038;50.940;20.564;2022-07-29T02:27:19;16.40;1.00
21752;DHT22;11038;50.940;20.564;2022-07-29T02:28:56;16.40;1.00
21752;DHT22;11038;50.940;20.564;2022-07-29T02:30:30;16.40;1.00
21752;DHT22;11038;50.940;20.564;2022-07-29T02:32:04;16.40;1.00
21752;DHT22;11038;50.940;20.564;2022-07-29T02:33:40;16.40;1.00
21752;DHT22;11038;50.940;20.564;2022-07-29T02:35:16;16.40;1.00
21752;DHT22;11038;50.940;20.564;2022-07-29T02:36:50;16.40;1.00
21752;DHT22;11038;50.940;20.564;2022-07-29T02:38:25;16.30;1.00
21752;DHT22;11038;50.940;20.564;2022-07-29T02:40:19;16.30;1.00
21752;DHT22;11038;50.940;20.564;2022-07-29T02:41:55;16.30;1.00
21752;DHT22;11038;50.940;20.564;2022-07-29T02:43:34;16.30;1.00
21752;DHT22;11038;50.940;20.564;2022-07-29T02:45:08;16.30;1.00
21752;DHT22;11038;50.940;20.564;2022-07-29T02:47:09;16.30;1.00
21752;DHT22;11038;50.940;20.564;2022-07-29T02:49:13;16.30;1.00
21752;DHT22;11038;50.940;20.564;2022-07-29T02:50:57;16.30;1.00
21752;DHT22;11038;50.940;20.564;2022-07-29T02:52:45;16.30;1.00
21752;DHT22;11038;50.940;20.564;2022-07-29T02:56:16;16.20;1.00
21752;DHT22;11038;50.940;20.564;2022-07-29T02:58:03;16.20;1.00
21752;DHT22;11038;50.940;20.564;2022-07-29T02:59:48;16.20;1.00
21752;DHT22;11038;50.940;20.564;2022-07-29T03:01:24;16.30;1.00
21752;DHT22;11038;50.940;20.564;2022-07-29T03:03:06;16.20;1.00
21752;DHT22;11038;50.940;20.564;2022-07-29T03:04:43;16.30;1.00
21752;DHT22;11038;50.940;20.564;2022-07-29T03:06:18;16.30;1.00
21752;DHT22;11038;50.940;20.564;2022-07-29T03:08:10;16.30;1.00
21752;DHT22;11038;50.940;20.564;2022-07-29T03:09:47;16.30;1.00
21752;DHT22;11038;50.940;20.564;2022-07-29T03:11:22;16.30;1.00
21752;DHT22;11038;50.940;20.564;2022-07-29T03:13:15;16.30;1.00
21752;DHT22;11038;50.940;20.564;2022-07-29T03:14:49;16.30;1.00
21752;DHT22;11038;50.940;20.564;2022-07-29T03:16:22;16.30;1.00
21752;DHT22;11038;50.940;20.564;2022-07-29T03:17:56;16.20;1.00
21752;DHT22;11038;50.940;20.564;2022-07-29T03:19:29;16.20;1.00
21752;DHT22;11038;50.940;20.564;2022-07-29T03:21:03;16.20;1.00
21752;DHT22;11038;50.940;20.564;2022-07-29T03:22:40;16.20;1.00
21752;DHT22;11038;50.940;20.564;2022-07-29T03:24:30;16.30;1.00
21752;DHT22;11038;50.940;20.564;2022-07-29T03:26:04;16.50;1.00
21752;DHT22;11038;50.940;20.564;2022-07-29T03:27:37;16.60;1.00
21752;DHT22;11038;50.940;20.564;2022-07-29T03:29:09;16.70;1.00
21752;DHT22;11038;50.940;20.564;2022-07-29T03:30:45;16.90;1.00
21752;DHT22;11038;50.940;20.564;2022-07-29T03:32:18;17.00;1.00
21752;DHT22;11038;50.940;20.564;2022-07-29T03:33:55;17.10;1.00
21752;DHT22;11038;50.940;20.564;2022-07-29T03:35:29;17.20;1.00
21752;DHT22;11038;50.940;20.564;2022-07-29T03:37:04;17.20;1.00
21752;DHT22;11038;50.940;20.564;2022-07-29T03:38:38;17.10;1.00
21752;DHT22;11038;50.940;20.564;2022-07-29T03:40:21;17.10;1.00
21752;DHT22;11038;50.940;20.564;2022-07-29T03:42:12;17.00;1.00
21752;DHT22;11038;50.940;20.564;2022-07-29T03:43:47;17.10;1.00
21752;DHT22;11038;50.940;20.564;2022-07-29T03:45:22;17.30;1.00
21752;DHT22;11038;50.940;20.564;2022-07-29T03:46:57;17.40;1.00
21752;DHT22;11038;50.940;20.564;2022-07-29T03:48:34;17.60;1.00
21752;DHT22;11038;50.940;20.564;2022-07-29T03:50:11;17.70;1.00
21752;DHT22;11038;50.940;20.564;2022-07-29T03:51:46;17.80;1.00
21752;DHT22;11038;50.940;20.564;2022-07-29T03:53:19;17.90;1.00
21752;DHT22;11038;50.940;20.564;2022-07-29T03:54:52;17.90;1.00
21752;DHT22;11038;50.940;20.564;2022-07-29T03:56:25;17.90;1.00
21752;DHT22;11038;50.940;20.564;2022-07-29T03:58:00;18.00;1.00
21752;DHT22;11038;50.940;20.564;2022-07-29T03:59:34;18.10;1.00
21752;DHT22;11038;50.940;20.564;2022-07-29T04:01:07;18.40;1.00
21752;DHT22;11038;50.940;20.564;2022-07-29T04:02:41;18.60;1.00
21752;DHT22;11038;50.940;20.564;2022-07-29T04:04:16;18.90;1.00
21752;DHT22;11038;50.940;20.564;2022-07-29T04:06:03;19.10;1.00
21752;DHT22;11038;50.940;20.564;2022-07-29T04:07:37;19.50;1.00
21752;DHT22;11038;50.940;20.564;2022-07-29T04:09:10;19.60;1.00
21752;DHT22;11038;50.940;20.564;2022-07-29T04:10:42;19.80;1.00
21752;DHT22;11038;50.940;20.564;2022-07-29T04:12:15;20.00;1.00
21752;DHT22;11038;50.940;20.564;2022-07-29T04:13:47;20.10;1.00
21752;DHT22;11038;50.940;20.564;2022-07-29T04:15:19;20.20;1.00
21752;DHT22;11038;50.940;20.564;2022-07-29T04:16:52;20.30;1.00
21752;DHT22;11038;50.940;20.564;2022-07-29T04:18:25;20.30;1.00
21752;DHT22;11038;50.940;20.564;2022-07-29T04:19:57;20.40;1.00
21752;DHT22;11038;50.940;20.564;2022-07-29T04:21:29;20.60;1.00
21752;DHT22;11038;50.940;20.564;2022-07-29T04:23:02;20.70;1.00
21752;DHT22;11038;50.940;20.564;2022-07-29T04:24:34;20.90;1.00
21752;DHT22;11038;50.940;20.564;2022-07-29T04:26:06;20.90;1.00
21752;DHT22;11038;50.940;20.564;2022-07-29T04:27:41;21.00;1.00
21752;DHT22;11038;50.940;20.564;2022-07-29T04:29:32;21.00;1.00
21752;DHT22;11038;50.940;20.564;2022-07-29T04:31:04;21.10;1.00
21752;DHT22;11038;50.940;20.564;2022-07-29T04:32:36;20.90;1.00
21752;DHT22;11038;50.940;20.564;2022-07-29T04:34:09;20.90;1.00
21752;DHT22;11038;50.940;20.564;2022-07-29T04:35:44;20.90;1.00
21752;DHT22;11038;50.940;20.564;2022-07-29T04:37:21;20.70;1.00
21752;DHT22;11038;50.940;20.564;2022-07-29T04:38:53;20.80;1.00
21752;DHT22;11038;50.940;20.564;2022-07-29T04:40:26;20.70;1.00
21752;DHT22;11038;50.940;20.564;2022-07-29T04:41:58;20.80;1.00
21752;DHT22;11038;50.940;20.564;2022-07-29T04:43:30;20.70;1.00
21752;DHT22;11038;50.940;20.564;2022-07-29T04:45:07;20.80;1.00
21752;DHT22;11038;50.940;20.564;2022-07-29T04:46:41;20.80;1.00
21752;DHT22;11038;50.940;20.564;2022-07-29T04:48:13;20.80;1.00
21752;DHT22;11038;50.940;20.564;2022-07-29T04:49:45;20.70;1.00
21752;DHT22;11038;50.940;20.564;2022-07-29T04:51:17;20.90;1.00
21752;DHT22;11038;50.940;20.564;2022-07-29T04:52:50;20.60;1.00
21752;DHT22;11038;50.940;20.564;2022-07-29T04:54:22;20.50;1.00
21752;DHT22;11038;50.940;20.564;2022-07-29T04:55:56;20.40;1.00
21752;DHT22;11038;50.940;20.564;2022-07-29T04:57:28;20.40;1.00
21752;DHT22;11038;50.940;20.564;2022-07-29T04:59:01;20.30;1.00
21752;DHT22;11038;50.940;20.564;2022-07-29T05:00:33;20.40;1.00
21752;DHT22;11038;50.940;20.564;2022-07-29T05:02:06;20.30;1.00
21752;DHT22;11038;50.940;20.564;2022-07-29T05:03:38;20.50;1.00
21752;DHT22;11038;50.940;20.564;2022-07-29T05:05:10;20.40;1.00
21752;DHT22;11038;50.940;20.564;2022-07-29T05:06:45;20.40;1.00
21752;DHT22;11038;50.940;20.564;2022-07-29T05:08:17;20.40;1.00
21752;DHT22;11038;50.940;20.564;2022-07-29T05:09:50;20.40;1.00
21752;DHT22;11038;50.940;20.564;2022-07-29T05:11:22;20.40;1.00
21752;DHT22;11038;50.940;20.564;2022-07-29T05:13:01;20.20;1.00
21752;DHT22;11038;50.940;20.564;2022-07-29T05:14:33;20.30;1.00
21752;DHT22;11038;50.940;20.564;2022-07-29T05:16:05;20.30;1.00
21752;DHT22;11038;50.940;20.564;2022-07-29T05:17:40;20.30;1.00
21752;DHT22;11038;50.940;20.564;2022-07-29T05:19:12;20.40;1.00
21752;DHT22;11038;50.940;20.564;2022-07-29T05:20:45;20.30;1.00
21752;DHT22;11038;50.940;20.564;2022-07-29T05:22:20;20.30;1.00
21752;DHT22;11038;50.940;20.564;2022-07-29T05:23:53;20.40;1.00
21752;DHT22;11038;50.940;20.564;2022-07-29T05:25:27;20.40;1.00
21752;DHT22;11038;50.940;20.564;2022-07-29T05:27:15;20.30;1.00
21752;DHT22;11038;50.940;20.564;2022-07-29T05:28:47;20.50;1.00
21752;DHT22;11038;50.940;20.564;2022-07-29T05:30:20;20.40;1.00
21752;DHT22;11038;50.940;20.564;2022-07-29T05:31:53;20.30;1.00
21752;DHT22;11038;50.940;20.564;2022-07-29T05:33:25;20.00;1.00
21752;DHT22;11038;50.940;20.564;2022-07-29T05:35:07;19.70;1.00
21752;DHT22;11038;50.940;20.564;2022-07-29T05:36:40;19.70;1.00
21752;DHT22;11038;50.940;20.564;2022-07-29T05:38:12;19.80;1.00
21752;DHT22;11038;50.940;20.564;2022-07-29T05:39:44;19.80;1.00
21752;DHT22;11038;50.940;20.564;2022-07-29T05:41:19;19.70;1.00
21752;DHT22;11038;50.940;20.564;2022-07-29T05:42:52;19.70;1.00
21752;DHT22;11038;50.940;20.564;2022-07-29T05:44:24;19.60;1.00
21752;DHT22;11038;50.940;20.564;2022-07-29T05:45:56;19.60;1.00
21752;DHT22;11038;50.940;20.564;2022-07-29T05:47:29;19.60;1.00
21752;DHT22;11038;50.940;20.564;2022-07-29T05:49:02;19.40;1.00
21752;DHT22;11038;50.940;20.564;2022-07-29T05:50:34;19.30;1.00
21752;DHT22;11038;50.940;20.564;2022-07-29T05:52:15;19.20;1.00
21752;DHT22;11038;50.940;20.564;2022-07-29T05:53:47;19.10;1.00
21752;DHT22;11038;50.940;20.564;2022-07-29T05:55:20;19.10;1.00
21752;DHT22;11038;50.940;20.564;2022-07-29T05:56:52;19.00;1.00
21752;DHT22;11038;50.940;20.564;2022-07-29T05:58:24;19.00;1.00
21752;DHT22;11038;50.940;20.564;2022-07-29T05:59:56;19.00;1.00
21752;DHT22;11038;50.940;20.564;2022-07-29T06:01:29;19.00;1.00
21752;DHT22;11038;50.940;20.564;2022-07-29T06:03:01;19.00;1.00
21752;DHT22;11038;50.940;20.564;2022-07-29T06:04:34;19.00;1.00
21752;DHT22;11038;50.940;20.564;2022-07-29T06:06:06;19.20;1.00
21752;DHT22;11038;50.940;20.564;2022-07-29T06:07:39;19.40;1.00
21752;DHT22;11038;50.940;20.564;2022-07-29T06:09:21;19.50;1.00
21752;DHT22;11038;50.940;20.564;2022-07-29T06:10:54;19.60;1.00
21752;DHT22;11038;50.940;20.564;2022-07-29T06:12:26;19.60;1.00
21752;DHT22;11038;50.940;20.564;2022-07-29T06:13:59;19.50;1.00
21752;DHT22;11038;50.940;20.564;2022-07-29T06:15:31;19.50;1.00
21752;DHT22;11038;50.940;20.564;2022-07-29T06:17:04;19.80;1.00
21752;DHT22;11038;50.940;20.564;2022-07-29T06:18:37;19.90;1.00
21752;DHT22;11038;50.940;20.564;2022-07-29T06:20:10;20.20;1.00
21752;DHT22;11038;50.940;20.564;2022-07-29T06:21:44;20.20;1.00
21752;DHT22;11038;50.940;20.564;2022-07-29T06:23:18;20.30;1.00
21752;DHT22;11038;50.940;20.564;2022-07-29T06:24:51;20.40;1.00
21752;DHT22;11038;50.940;20.564;2022-07-29T06:26:23;20.60;1.00
21752;DHT22;11038;50.940;20.564;2022-07-29T06:28:02;20.70;1.00
21752;DHT22;11038;50.940;20.564;2022-07-29T06:29:35;20.80;1.00
21752;DHT22;11038;50.940;20.564;2022-07-29T06:31:08;20.90;1.00
21752;DHT22;11038;50.940;20.564;2022-07-29T06:32:41;20.90;1.00
21752;DHT22;11038;50.940;20.564;2022-07-29T06:34:14;21.00;1.00
21752;DHT22;11038;50.940;20.564;2022-07-29T06:35:49;21.00;1.00
21752;DHT22;11038;50.940;20.564;2022-07-29T06:37:24;21.10;1.00
21752;DHT22;11038;50.940;20.564;2022-07-29T06:38:58;21.00;1.00
21752;DHT22;11038;50.940;20.564;2022-07-29T06:40:33;21.10;1.00
21752;DHT22;11038;50.940;20.564;2022-07-29T06:42:24;21.20;1.00
21752;DHT22;11038;50.940;20.564;2022-07-29T06:43:56;21.10;1.00
21752;DHT22;11038;50.940;20.564;2022-07-29T06:45:29;21.30;1.00
21752;DHT22;11038;50.940;20.564;2022-07-29T06:47:02;21.30;1.00
21752;DHT22;11038;50.940;20.564;2022-07-29T06:48:35;21.10;1.00
21752;DHT22;11038;50.940;20.564;2022-07-29T06:50:08;21.30;1.00
21752;DHT22;11038;50.940;20.564;2022-07-29T06:51:44;21.30;1.00
21752;DHT22;11038;50.940;20.564;2022-07-29T06:53:16;21.50;1.00
21752;DHT22;11038;50.940;20.564;2022-07-29T06:54:48;21.50;1.00
21752;DHT22;11038;50.940;20.564;2022-07-29T06:56:20;21.60;1.00
21752;DHT22;11038;50.940;20.564;2022-07-29T06:57:53;21.70;1.00
21752;DHT22;11038;50.940;20.564;2022-07-29T06:59:25;21.90;1.00
21752;DHT22;11038;50.940;20.564;2022-07-29T07:01:06;21.80;1.00
21752;DHT22;11038;50.940;20.564;2022-07-29T07:02:38;22.00;1.00
21752;DHT22;11038;50.940;20.564;2022-07-29T07:04:12;22.10;1.00
21752;DHT22;11038;50.940;20.564;2022-07-29T07:05:46;22.20;1.00
21752;DHT22;11038;50.940;20.564;2022-07-29T07:07:18;22.10;1.00
21752;DHT22;11038;50.940;20.564;2022-07-29T07:08:51;22.10;1.00
21752;DHT22;11038;50.940;20.564;2022-07-29T07:10:24;22.00;1.00
21752;DHT22;11038;50.940;20.564;2022-07-29T07:11:56;22.00;1.00
21752;DHT22;11038;50.940;20.564;2022-07-29T07:13:29;21.80;1.00
21752;DHT22;11038;50.940;20.564;2022-07-29T07:15:07;21.90;1.00
21752;DHT22;11038;50.940;20.564;2022-07-29T07:16:40;21.70;1.00
21752;DHT22;11038;50.940;20.564;2022-07-29T07:18:13;21.70;1.00
21752;DHT22;11038;50.940;20.564;2022-07-29T07:19:46;21.80;1.00
21752;DHT22;11038;50.940;20.564;2022-07-29T07:21:19;21.90;1.00
21752;DHT22;11038;50.940;20.564;2022-07-29T07:22:51;21.90;1.00
21752;DHT22;11038;50.940;20.564;2022-07-29T07:24:23;21.90;1.00
21752;DHT22;11038;50.940;20.564;2022-07-29T07:25:56;21.80;1.00
21752;DHT22;11038;50.940;20.564;2022-07-29T07:27:28;21.80;1.00
21752;DHT22;11038;50.940;20.564;2022-07-29T07:29:01;21.90;1.00
21752;DHT22;11038;50.940;20.564;2022-07-29T07:30:34;21.80;1.00
21752;DHT22;11038;50.940;20.564;2022-07-29T07:32:07;22.00;1.00
21752;DHT22;11038;50.940;20.564;2022-07-29T07:33:39;22.00;1.00
21752;DHT22;11038;50.940;20.564;2022-07-29T07:35:12;22.10;1.00
21752;DHT22;11038;50.940;20.564;2022-07-29T07:36:44;22.10;1.00
21752;DHT22;11038;50.940;20.564;2022-07-29T07:38:17;22.20;1.00
21752;DHT22;11038;50.940;20.564;2022-07-29T07:39:49;22.40;1.00
21752;DHT22;11038;50.940;20.564;2022-07-29T07:41:23;22.50;1.00
21752;DHT22;11038;50.940;20.564;2022-07-29T07:42:55;22.50;1.00
21752;DHT22;11038;50.940;20.564;2022-07-29T07:44:27;22.60;1.00
21752;DHT22;11038;50.940;20.564;2022-07-29T07:45:59;22.70;1.00
21752;DHT22;11038;50.940;20.564;2022-07-29T07:47:32;22.90;1.00
21752;DHT22;11038;50.940;20.564;2022-07-29T07:49:05;22.80;1.00
21752;DHT22;11038;50.940;20.564;2022-07-29T07:50:37;22.90;1.00
21752;DHT22;11038;50.940;20.564;2022-07-29T07:52:09;23.20;1.00
21752;DHT22;11038;50.940;20.564;2022-07-29T07:53:42;23.10;1.00
21752;DHT22;11038;50.940;20.564;2022-07-29T07:55:16;23.10;1.00
21752;DHT22;11038;50.940;20.564;2022-07-29T07:56:49;23.20;1.00
21752;DHT22;11038;50.940;20.564;2022-07-29T07:58:24;23.20;1.00
21752;DHT22;11038;50.940;20.564;2022-07-29T07:59:57;23.30;1.00
21752;DHT22;11038;50.940;20.564;2022-07-29T08:01:29;23.40;1.00
21752;DHT22;11038;50.940;20.564;2022-07-29T08:03:19;23.60;1.00
21752;DHT22;11038;50.940;20.564;2022-07-29T08:04:51;23.60;1.00
21752;DHT22;11038;50.940;20.564;2022-07-29T08:06:23;23.50;1.00
21752;DHT22;11038;50.940;20.564;2022-07-29T08:07:56;23.60;1.00
21752;DHT22;11038;50.940;20.564;2022-07-29T08:09:29;23.80;1.00
21752;DHT22;11038;50.940;20.564;2022-07-29T08:11:02;23.90;1.00
21752;DHT22;11038;50.940;20.564;2022-07-29T08:12:40;23.80;1.00
21752;DHT22;11038;50.940;20.564;2022-07-29T08:14:12;23.60;1.00
21752;DHT22;11038;50.940;20.564;2022-07-29T08:15:46;23.60;1.00
21752;DHT22;11038;50.940;20.564;2022-07-29T08:17:18;23.70;1.00
21752;DHT22;11038;50.940;20.564;2022-07-29T08:18:51;23.80;1.00
21752;DHT22;11038;50.940;20.564;2022-07-29T08:20:24;23.70;1.00
21752;DHT22;11038;50.940;20.564;2022-07-29T08:21:57;23.70;1.00
21752;DHT22;11038;50.940;20.564;2022-07-29T08:23:29;23.90;1.00
21752;DHT22;11038;50.940;20.564;2022-07-29T08:25:19;23.90;1.00
21752;DHT22;11038;50.940;20.564;2022-07-29T08:26:53;23.90;1.00
21752;DHT22;11038;50.940;20.564;2022-07-29T08:28:25;24.20;1.00
21752;DHT22;11038;50.940;20.564;2022-07-29T08:29:57;24.30;1.00
21752;DHT22;11038;50.940;20.564;2022-07-29T08:31:30;24.10;1.00
21752;DHT22;11038;50.940;20.564;2022-07-29T08:33:02;24.20;1.00
21752;DHT22;11038;50.940;20.564;2022-07-29T08:34:35;24.10;1.00
21752;DHT22;11038;50.940;20.564;2022-07-29T08:36:07;24.10;1.00
21752;DHT22;11038;50.940;20.564;2022-07-29T08:37:40;24.10;1.00
21752;DHT22;11038;50.940;20.564;2022-07-29T08:39:12;24.20;1.00
21752;DHT22;11038;50.940;20.564;2022-07-29T08:40:45;24.20;1.00
21752;DHT22;11038;50.940;20.564;2022-07-29T08:42:18;24.10;1.00
21752;DHT22;11038;50.940;20.564;2022-07-29T08:43:51;24.20;1.00
21752;DHT22;11038;50.940;20.564;2022-07-29T08:45:25;24.10;1.00
21752;DHT22;11038;50.940;20.564;2022-07-29T08:46:58;24.10;1.00
21752;DHT22;11038;50.940;20.564;2022-07-29T08:48:31;24.10;1.00
21752;DHT22;11038;50.940;20.564;2022-07-29T08:50:04;24.30;1.00
21752;DHT22;11038;50.940;20.564;2022-07-29T08:51:43;24.30;1.00
21752;DHT22;11038;50.940;20.564;2022-07-29T08:53:21;24.00;1.00
21752;DHT22;11038;50.940;20.564;2022-07-29T08:54:55;24.00;1.00
21752;DHT22;11038;50.940;20.564;2022-07-29T08:56:28;24.00;1.00
21752;DHT22;11038;50.940;20.564;2022-07-29T08:58:02;24.10;1.00
21752;DHT22;11038;50.940;20.564;2022-07-29T08:59:40;24.20;1.00
21752;DHT22;11038;50.940;20.564;2022-07-29T09:01:17;24.30;1.00
21752;DHT22;11038;50.940;20.564;2022-07-29T09:03:16;24.60;1.00
21752;DHT22;11038;50.940;20.564;2022-07-29T09:04:51;24.40;1.00
21752;DHT22;11038;50.940;20.564;2022-07-29T09:06:24;24.30;1.00
21752;DHT22;11038;50.940;20.564;2022-07-29T09:08:00;24.50;1.00
21752;DHT22;11038;50.940;20.564;2022-07-29T09:09:33;24.70;1.00
21752;DHT22;11038;50.940;20.564;2022-07-29T09:11:06;24.80;1.00
21752;DHT22;11038;50.940;20.564;2022-07-29T09:12:39;24.40;1.00
21752;DHT22;11038;50.940;20.564;2022-07-29T09:14:12;24.20;1.00
21752;DHT22;11038;50.940;20.564;2022-07-29T09:15:46;24.20;1.00
21752;DHT22;11038;50.940;20.564;2022-07-29T09:17:44;24.10;1.00
21752;DHT22;11038;50.940;20.564;2022-07-29T09:20:57;24.20;1.00
21752;DHT22;11038;50.940;20.564;2022-07-29T09:22:48;24.40;1.00
21752;DHT22;11038;50.940;20.564;2022-07-29T09:24:22;24.40;1.00
21752;DHT22;11038;50.940;20.564;2022-07-29T09:25:55;24.50;1.00
21752;DHT22;11038;50.940;20.564;2022-07-29T09:27:36;24.60;1.00
21752;DHT22;11038;50.940;20.564;2022-07-29T09:29:15;24.70;1.00
21752;DHT22;11038;50.940;20.564;2022-07-29T09:30:56;24.70;1.00
21752;DHT22;11038;50.940;20.564;2022-07-29T09:32:33;24.60;1.00
21752;DHT22;11038;50.940;20.564;2022-07-29T09:34:27;24.70;1.00
21752;DHT22;11038;50.940;20.564;2022-07-29T09:36:05;24.90;1.00
21752;DHT22;11038;50.940;20.564;2022-07-29T09:37:38;25.20;1.00
21752;DHT22;11038;50.940;20.564;2022-07-29T09:39:11;25.30;1.00
21752;DHT22;11038;50.940;20.564;2022-07-29T09:40:56;25.40;1.00
21752;DHT22;11038;50.940;20.564;2022-07-29T09:42:36;25.40;1.00
21752;DHT22;11038;50.940;20.564;2022-07-29T09:44:09;25.20;1.00
21752;DHT22;11038;50.940;20.564;2022-07-29T09:45:41;25.20;1.00
21752;DHT22;11038;50.940;20.564;2022-07-29T09:47:14;24.90;1.00
21752;DHT22;11038;50.940;20.564;2022-07-29T09:49:10;25.20;1.00
21752;DHT22;11038;50.940;20.564;2022-07-29T09:50:45;24.80;1.00
21752;DHT22;11038;50.940;20.564;2022-07-29T09:52:21;24.90;1.00
21752;DHT22;11038;50.940;20.564;2022-07-29T09:53:53;24.70;1.00
21752;DHT22;11038;50.940;20.564;2022-07-29T09:55:26;24.80;1.00
21752;DHT22;11038;50.940;20.564;2022-07-29T09:57:00;24.70;1.00
21752;DHT22;11038;50.940;20.564;2022-07-29T09:58:32;24.80;1.00
21752;DHT22;11038;50.940;20.564;2022-07-29T10:01:44;25.20;1.00
21752;DHT22;11038;50.940;20.564;2022-07-29T10:03:17;25.40;1.00
21752;DHT22;11038;50.940;20.564;2022-07-29T10:04:50;25.50;1.00
21752;DHT22;11038;50.940;20.564;2022-07-29T10:06:23;25.60;1.00
21752;DHT22;11038;50.940;20.564;2022-07-29T10:07:57;25.60;1.00
21752;DHT22;11038;50.940;20.564;2022-07-29T10:09:30;25.60;1.00
21752;DHT22;11038;50.940;20.564;2022-07-29T10:11:17;25.80;1.00
21752;DHT22;11038;50.940;20.564;2022-07-29T10:12:54;26.00;1.00
21752;DHT22;11038;50.940;20.564;2022-07-29T10:14:33;25.90;1.00
21752;DHT22;11038;50.940;20.564;2022-07-29T10:16:07;25.70;1.00
21752;DHT22;11038;50.940;20.564;2022-07-29T10:17:41;25.50;1.00